createdAt,value
2023-01-11T00:01:58.332Z,3.70
2023-01-11T00:04:30.746Z,2.70
2023-01-11T00:07:00.222Z,4.70
2023-01-11T00:09:29.357Z,4.57
2023-01-11T00:11:58.324Z,3.80
2023-01-11T00:14:27.455Z,2.35
2023-01-11T00:16:56.584Z,3.40
2023-01-11T00:19:25.984Z,3.25
2023-01-11T00:21:56.363Z,4.53
2023-01-11T00:24:25.382Z,3.33
2023-01-11T00:26:54.274Z,3.88
2023-01-11T00:29:23.885Z,2.25
2023-01-11T00:31:53.517Z,2.50
2023-01-11T00:34:22.522Z,4.20
2023-01-11T00:36:51.783Z,3.60
2023-01-11T00:39:22.315Z,3.70
2023-01-11T00:42:08.774Z,3.70
2023-01-11T00:44:55.197Z,2.38
2023-01-11T00:47:41.537Z,3.03
2023-01-11T00:50:12.322Z,4.90
2023-01-11T00:52:41.295Z,2.35
2023-01-11T00:55:14.678Z,2.65
2023-01-11T00:57:43.905Z,3.67
2023-01-11T01:00:14.907Z,3.13
2023-01-11T01:02:44.051Z,3.43
2023-01-11T01:05:13.738Z,4.73
2023-01-11T01:07:42.951Z,5.60
2023-01-11T01:10:16.686Z,2.87
2023-01-11T01:13:02.777Z,3.10
2023-01-11T01:15:31.999Z,2.50
2023-01-11T01:18:01.089Z,2.93
2023-01-11T01:20:30.220Z,2.97
2023-01-11T01:22:59.134Z,2.57
2023-01-11T01:25:29.472Z,2.87
2023-01-11T01:27:58.441Z,2.97
2023-01-11T01:30:27.691Z,4.60
2023-01-11T01:32:56.738Z,3.33
2023-01-11T01:35:25.973Z,5.47
2023-01-11T01:37:54.828Z,3.53
2023-01-11T01:40:24.732Z,3.85
2023-01-11T01:42:56.855Z,6.53
2023-01-11T01:45:29.165Z,2.93
2023-01-11T01:48:01.767Z,4.00
2023-01-11T01:50:37.372Z,8.07
2023-01-11T01:53:13.877Z,4.53
2023-01-11T01:55:49.961Z,7.70
2023-01-11T01:58:27.051Z,7.10
2023-01-11T02:00:56.382Z,6.77
2023-01-11T02:03:28.776Z,5.65
2023-01-11T02:05:58.083Z,3.50
2023-01-11T02:08:42.587Z,3.73
2023-01-11T02:11:29.846Z,6.83
2023-01-11T02:14:03.820Z,5.13
2023-01-11T02:16:33.238Z,3.78
2023-01-11T02:19:03.105Z,2.95
2023-01-11T02:21:54.260Z,4.47
2023-01-11T02:24:58.024Z,3.83
2023-01-11T02:27:47.561Z,3.10
2023-01-11T02:30:29.886Z,4.87
2023-01-11T02:33:16.174Z,3.72
2023-01-11T02:35:56.488Z,5.53
2023-01-11T02:38:34.689Z,3.23
2023-01-11T02:41:12.186Z,3.80
2023-01-11T02:44:07.921Z,3.35
2023-01-11T02:46:47.570Z,3.00
2023-01-11T02:49:28.708Z,3.60
2023-01-11T02:52:10.153Z,3.77
2023-01-11T02:54:44.878Z,3.27
2023-01-11T02:57:18.987Z,3.27
2023-01-11T02:59:51.416Z,3.37
2023-01-11T03:02:20.446Z,4.87
2023-01-11T03:04:49.492Z,6.03
2023-01-11T03:07:47.120Z,5.60
2023-01-11T03:10:29.907Z,3.13
2023-01-11T03:13:13.498Z,4.10
2023-01-11T03:16:14.463Z,3.40
2023-01-11T03:18:54.939Z,4.80
2023-01-11T03:21:42.927Z,3.67
2023-01-11T03:24:28.573Z,4.30
2023-01-11T03:27:16.825Z,3.20
2023-01-11T03:29:54.208Z,3.50
2023-01-11T03:32:34.999Z,3.72
2023-01-11T03:35:18.330Z,5.63
2023-01-11T03:37:59.176Z,6.17
2023-01-11T03:40:34.405Z,4.83
2023-01-11T03:43:13.622Z,4.47
2023-01-11T03:45:54.876Z,3.97
2023-01-11T03:48:32.497Z,6.00
2023-01-11T03:51:05.058Z,6.43
2023-01-11T03:53:40.245Z,6.17
2023-01-11T03:56:15.731Z,3.30
2023-01-11T03:58:46.128Z,4.37
2023-01-11T04:01:16.212Z,4.47
2023-01-11T04:03:47.260Z,5.33
2023-01-11T04:06:20.669Z,4.00
2023-01-11T04:08:52.600Z,6.17
2023-01-11T04:11:21.810Z,6.43
2023-01-11T04:13:50.694Z,3.80
2023-01-11T04:16:20.189Z,3.47
2023-01-11T04:18:50.643Z,6.43
2023-01-11T04:21:19.806Z,6.10
2023-01-11T04:23:48.942Z,6.10
2023-01-11T04:26:21.303Z,4.60
2023-01-11T04:28:51.630Z,3.97
2023-01-11T04:31:22.199Z,6.50
2023-01-11T04:33:52.762Z,3.83
2023-01-11T04:36:22.048Z,6.50
2023-01-11T04:38:51.303Z,3.90
2023-01-11T04:41:37.596Z,3.80
2023-01-11T04:44:07.881Z,4.20
2023-01-11T04:46:37.289Z,5.30
2023-01-11T04:49:07.705Z,4.17
2023-01-11T04:51:37.278Z,4.93
2023-01-11T04:54:06.673Z,10.73
2023-01-11T04:56:38.321Z,7.03
2023-01-11T04:59:07.376Z,4.97
2023-01-11T05:01:37.002Z,4.83
2023-01-11T05:04:07.384Z,9.33
2023-01-11T05:06:40.395Z,6.80
2023-01-11T05:09:14.739Z,5.43
2023-01-11T05:11:45.200Z,7.77
2023-01-11T05:14:14.843Z,4.93
2023-01-11T05:16:45.119Z,4.17
2023-01-11T05:19:15.747Z,6.47
2023-01-11T05:21:44.768Z,4.57
2023-01-11T05:24:17.238Z,4.23
2023-01-11T05:26:48.572Z,6.50
2023-01-11T05:29:20.540Z,5.73
2023-01-11T05:31:50.515Z,6.37
2023-01-11T05:34:20.959Z,6.00
2023-01-11T05:36:50.019Z,4.80
2023-01-11T05:39:18.980Z,5.43
2023-01-11T05:41:50.844Z,12.13
2023-01-11T05:44:37.959Z,12.13
2023-01-11T05:47:07.167Z,18.97
2023-01-11T05:49:37.624Z,14.27
2023-01-11T05:52:06.899Z,6.30
2023-01-11T05:54:36.032Z,8.60
2023-01-11T05:57:10.731Z,7.77
2023-01-11T05:59:39.946Z,6.07
2023-01-11T06:02:09.224Z,4.10
2023-01-11T06:04:41.786Z,4.97
2023-01-11T06:07:11.156Z,3.73
2023-01-11T06:09:40.648Z,5.17
2023-01-11T06:12:10.070Z,4.10
2023-01-11T06:14:39.157Z,5.80
2023-01-11T06:17:08.401Z,4.23
2023-01-11T06:19:39.123Z,5.90
2023-01-11T06:22:08.234Z,4.97
2023-01-11T06:24:37.526Z,5.37
2023-01-11T06:27:09.631Z,4.70
2023-01-11T06:29:38.606Z,3.80
2023-01-11T06:32:08.846Z,7.33
2023-01-11T06:34:39.510Z,4.87
2023-01-11T06:37:08.824Z,4.13
2023-01-11T06:39:38.061Z,6.13
2023-01-11T06:42:07.502Z,4.00
2023-01-11T06:44:36.707Z,8.03
2023-01-11T06:47:06.082Z,4.37
2023-01-11T06:49:35.072Z,4.87
2023-01-11T06:52:05.837Z,3.73
2023-01-11T06:54:34.819Z,5.87
2023-01-11T06:57:03.919Z,7.37
2023-01-11T06:59:33.199Z,4.23
2023-01-11T07:02:02.676Z,7.10
2023-01-11T07:04:32.196Z,5.00
2023-01-11T07:07:01.176Z,5.10
2023-01-11T07:09:31.575Z,3.97
2023-01-11T07:12:00.615Z,4.63
2023-01-11T07:14:30.135Z,6.30
2023-01-11T07:16:58.917Z,4.13
2023-01-11T07:19:27.798Z,4.63
2023-01-11T07:21:56.632Z,3.60
2023-01-11T07:24:25.803Z,3.40
2023-01-11T07:26:56.407Z,5.53
2023-01-11T07:29:25.245Z,5.13
2023-01-11T07:31:54.140Z,4.30
2023-01-11T07:34:23.976Z,3.03
2023-01-11T07:36:53.046Z,4.60
2023-01-11T07:39:26.829Z,4.13
2023-01-11T07:42:19.250Z,3.75
2023-01-11T07:44:48.253Z,3.53
2023-01-11T07:47:17.275Z,2.10
2023-01-11T07:49:46.065Z,3.00
2023-01-11T07:52:14.946Z,3.58
2023-01-11T07:54:43.778Z,2.58
2023-01-11T07:57:13.990Z,2.20
2023-01-11T07:59:42.839Z,5.07
2023-01-11T08:02:12.689Z,5.82
2023-01-11T08:04:41.528Z,3.55
2023-01-11T08:07:10.461Z,6.20
2023-01-11T08:09:39.301Z,2.85
2023-01-11T08:12:26.377Z,4.40
2023-01-11T08:14:56.992Z,5.35
2023-01-11T08:17:25.896Z,6.07
2023-01-11T08:19:55.966Z,3.55
2023-01-11T08:22:24.860Z,4.25
2023-01-11T08:24:53.703Z,1.70
2023-01-11T08:27:22.584Z,2.25
2023-01-11T08:29:51.473Z,1.92
2023-01-11T08:32:21.723Z,3.03
2023-01-11T08:34:50.526Z,4.25
2023-01-11T08:37:19.293Z,1.88
2023-01-11T08:39:48.782Z,2.90
2023-01-11T08:42:17.603Z,1.45
2023-01-11T08:44:46.368Z,2.33
2023-01-11T08:47:15.249Z,2.65
2023-01-11T08:49:45.413Z,4.40
2023-01-11T08:52:15.566Z,1.83
2023-01-11T08:54:44.290Z,2.05
2023-01-11T08:57:13.133Z,1.88
2023-01-11T08:59:42.071Z,1.45
2023-01-11T09:02:13.165Z,1.00
2023-01-11T09:04:44.481Z,3.08
2023-01-11T09:07:13.205Z,1.52
2023-01-11T09:09:42.078Z,3.15
2023-01-11T09:12:10.918Z,4.55
2023-01-11T09:14:39.706Z,2.85
2023-01-11T09:17:08.501Z,3.40
2023-01-11T09:19:38.171Z,0.80
2023-01-11T09:22:08.389Z,5.97
2023-01-11T09:24:37.165Z,7.10
2023-01-11T09:27:06.274Z,6.07
2023-01-11T09:29:37.296Z,7.90
2023-01-11T09:32:07.099Z,18.65
2023-01-11T09:34:36.064Z,7.97
2023-01-11T09:37:07.376Z,9.77
2023-01-11T09:39:37.241Z,5.25
2023-01-11T09:42:37.669Z,5.47
2023-01-11T09:45:15.089Z,5.43
2023-01-11T09:47:51.289Z,5.32
2023-01-11T09:50:26.747Z,3.55
2023-01-11T09:53:00.871Z,5.25
2023-01-11T09:55:37.208Z,6.97
2023-01-11T09:58:51.097Z,3.83
2023-01-11T10:01:31.249Z,5.32
2023-01-11T10:04:48.650Z,3.10
2023-01-11T10:07:53.830Z,3.72
2023-01-11T10:18:31.923Z,3.67
2023-01-11T10:18:34.071Z,3.70
2023-01-11T10:20:01.958Z,4.15
2023-01-11T10:22:39.687Z,1.40
2023-01-11T10:25:22.038Z,3.80
2023-01-11T10:28:00.869Z,2.78
2023-01-11T10:30:52.051Z,2.13
2023-01-11T10:33:49.938Z,1.05
2023-01-11T10:36:39.697Z,0.82
2023-01-11T10:39:35.917Z,0.57
2023-01-11T10:42:11.815Z,1.40
2023-01-11T10:44:57.829Z,0.35
2023-01-11T10:47:37.176Z,0.43
2023-01-11T10:50:20.552Z,1.52
2023-01-11T10:53:02.791Z,1.05
2023-01-11T10:55:46.471Z,0.90
2023-01-11T10:58:31.495Z,0.85
2023-01-11T11:01:20.529Z,0.85
2023-01-11T11:04:15.269Z,0.60
2023-01-11T11:06:59.073Z,0.82
2023-01-11T11:09:38.637Z,1.10
2023-01-11T11:12:13.953Z,0.57
2023-01-11T11:14:54.275Z,0.95
2023-01-11T11:17:32.049Z,0.70
2023-01-11T11:20:01.438Z,0.90
2023-01-11T11:22:30.393Z,1.58
2023-01-11T11:25:05.347Z,0.98
2023-01-11T11:27:45.570Z,0.93
2023-01-11T11:30:26.001Z,1.40
2023-01-11T11:33:02.351Z,3.97
2023-01-11T11:35:34.018Z,0.73
2023-01-11T11:38:03.307Z,0.77
2023-01-11T11:40:36.463Z,1.55
2023-01-11T11:43:19.510Z,2.70
2023-01-11T11:45:57.919Z,2.53
2023-01-11T11:48:31.276Z,0.73
2023-01-11T11:51:05.530Z,1.10
2023-01-11T11:53:43.798Z,1.42
2023-01-11T11:56:25.433Z,1.02
2023-01-11T11:58:56.601Z,1.48
2023-01-11T12:01:31.586Z,1.23
2023-01-11T12:04:11.256Z,1.98
2023-01-11T12:06:41.784Z,1.45
2023-01-11T12:09:25.211Z,1.38
2023-01-11T12:11:54.309Z,1.33
2023-01-11T12:14:29.354Z,1.23
2023-01-11T12:17:00.106Z,1.17
2023-01-11T12:19:37.789Z,2.35
2023-01-11T12:22:19.162Z,2.13
2023-01-11T12:24:49.555Z,1.50
2023-01-11T12:27:39.988Z,1.40
2023-01-11T12:30:23.338Z,1.10
2023-01-11T12:33:26.663Z,0.70
2023-01-11T12:36:06.735Z,1.20
2023-01-11T12:38:52.558Z,0.93
2023-01-11T12:42:01.699Z,2.08
2023-01-11T12:44:57.603Z,1.10
2023-01-11T12:48:17.591Z,2.35
2023-01-11T12:51:10.526Z,1.30
2023-01-11T12:54:00.120Z,1.30
2023-01-11T12:57:07.510Z,2.13
2023-01-11T13:00:17.257Z,2.88
2023-01-11T13:03:26.708Z,2.95
2023-01-11T13:06:09.124Z,1.25
2023-01-11T13:08:57.323Z,0.80
2023-01-11T13:11:43.646Z,1.63
2023-01-11T13:14:44.287Z,1.05
2023-01-11T13:17:29.154Z,1.63
2023-01-11T13:20:19.568Z,2.95
2023-01-11T13:22:55.503Z,2.53
2023-01-11T13:25:29.320Z,1.67
2023-01-11T13:28:02.891Z,3.92
2023-01-11T13:30:34.098Z,4.53
2023-01-11T13:33:20.441Z,4.43
2023-01-11T13:35:56.625Z,2.33
2023-01-11T13:38:39.048Z,4.80
2023-01-11T13:41:20.370Z,3.80
2023-01-11T13:43:57.503Z,3.75
2023-01-11T13:46:50.157Z,2.67
2023-01-11T13:49:52.947Z,6.53
2023-01-11T13:52:37.957Z,5.60
2023-01-11T13:55:24.918Z,11.15
2023-01-11T13:58:03.995Z,3.95
2023-01-11T14:00:41.267Z,5.10
2023-01-11T14:03:27.274Z,3.95
2023-01-11T14:06:22.088Z,4.82
2023-01-11T14:09:11.073Z,3.78
2023-01-11T14:11:58.551Z,3.65
2023-01-11T14:14:56.065Z,3.05
2023-01-11T14:18:18.295Z,3.47
2023-01-11T14:20:59.251Z,5.97
2023-01-11T14:23:38.176Z,6.15
2023-01-11T14:27:00.640Z,2.83
2023-01-11T14:29:59.299Z,5.50
2023-01-11T14:33:02.773Z,2.72
2023-01-11T14:36:38.500Z,4.70
2023-01-11T14:39:45.972Z,3.33
2023-01-11T14:42:49.754Z,3.65
2023-01-11T14:45:31.600Z,5.18
2023-01-11T14:48:23.731Z,3.88
2023-01-11T14:51:32.679Z,4.70
2023-01-11T14:54:09.748Z,3.42
2023-01-11T14:56:52.811Z,6.93
2023-01-11T14:59:37.849Z,15.90
2023-01-11T15:02:26.316Z,4.53
2023-01-11T15:05:34.809Z,3.88
2023-01-11T15:08:23.499Z,3.13
2023-01-11T15:10:58.508Z,4.72
2023-01-11T15:13:33.827Z,3.40
2023-01-11T15:16:39.631Z,6.10
2023-01-11T15:19:14.367Z,5.13
2023-01-11T15:21:53.353Z,2.90
2023-01-11T15:24:27.549Z,3.72
2023-01-11T15:26:58.776Z,6.30
2023-01-11T15:29:32.493Z,4.78
2023-01-11T15:32:29.606Z,2.72
2023-01-11T15:35:33.063Z,3.72
2023-01-11T15:38:12.443Z,4.32
2023-01-11T15:40:46.485Z,5.35
2023-01-11T15:44:05.127Z,4.70
2023-01-11T15:47:43.087Z,3.88
2023-01-11T15:51:07.940Z,4.03
2023-01-11T15:54:16.254Z,3.00
2023-01-11T15:57:22.329Z,4.43
2023-01-11T16:00:30.112Z,2.47
2023-01-11T16:03:54.255Z,3.88
2023-01-11T16:06:39.622Z,6.30
2023-01-11T16:10:01.386Z,4.38
2023-01-11T16:13:01.098Z,4.53
2023-01-11T16:15:46.225Z,3.53
2023-01-11T16:18:22.206Z,5.43
2023-01-11T16:21:03.965Z,6.63
2023-01-11T16:23:34.751Z,7.45
2023-01-11T16:26:05.067Z,5.28
2023-01-11T16:28:34.237Z,8.40
2023-01-11T16:31:06.018Z,10.95
2023-01-11T16:33:36.110Z,8.05
2023-01-11T16:36:12.208Z,7.63
2023-01-11T16:39:03.733Z,8.32
2023-01-11T16:41:45.121Z,11.48
2023-01-11T16:44:29.872Z,8.75
2023-01-11T16:47:18.129Z,8.98
2023-01-11T16:49:50.005Z,14.02
2023-01-11T16:52:47.562Z,30.10
2023-01-11T16:55:36.096Z,28.20
2023-01-11T16:58:08.526Z,29.77
2023-01-11T17:00:39.998Z,10.23
2023-01-11T17:03:23.959Z,14.27
2023-01-11T17:06:19.706Z,15.57
2023-01-11T17:08:52.896Z,13.07
2023-01-11T17:11:36.396Z,6.28
2023-01-11T17:14:42.364Z,6.90
2023-01-11T17:17:13.282Z,4.78
2023-01-11T17:19:47.872Z,5.10
2023-01-11T17:22:23.745Z,6.45
2023-01-11T17:24:59.447Z,6.95
2023-01-11T17:27:33.335Z,5.32
2023-01-11T17:30:04.826Z,5.82
2023-01-11T17:32:39.222Z,7.35
2023-01-11T17:35:17.110Z,8.80
2023-01-11T17:37:48.900Z,7.35
2023-01-11T17:40:26.950Z,5.50
2023-01-11T17:43:18.907Z,7.53
2023-01-11T17:45:50.676Z,8.57
2023-01-11T17:48:20.592Z,8.32
2023-01-11T17:50:54.719Z,9.45
2023-01-11T17:53:26.963Z,6.18
2023-01-11T17:56:00.402Z,9.10
2023-01-11T17:58:30.969Z,7.93
2023-01-11T18:01:21.523Z,9.23
2023-01-11T18:03:53.713Z,7.18
2023-01-11T18:06:33.097Z,10.13
2023-01-11T18:09:05.366Z,7.82
2023-01-11T18:11:40.384Z,8.38
2023-01-11T18:14:20.998Z,10.32
2023-01-11T18:17:05.600Z,9.38
2023-01-11T18:19:39.499Z,10.23
2023-01-11T18:22:30.856Z,13.27
2023-01-11T18:25:02.199Z,9.75
2023-01-11T18:27:35.039Z,8.25
2023-01-11T18:30:11.449Z,7.60
2023-01-11T18:32:45.051Z,11.70
2023-01-11T18:35:19.421Z,8.23
2023-01-11T18:37:48.783Z,10.52
2023-01-11T18:40:19.954Z,9.13
2023-01-11T18:42:54.802Z,9.90
2023-01-11T18:45:25.036Z,10.05
2023-01-11T18:47:53.968Z,10.65
2023-01-11T18:50:24.046Z,30.77
2023-01-11T18:52:52.866Z,24.00
2023-01-11T18:55:21.719Z,16.55
2023-01-11T18:57:52.201Z,15.98
2023-01-11T19:00:21.902Z,17.88
2023-01-11T19:05:30.255Z,8.63
2023-01-11T19:07:59.109Z,11.50
2023-01-11T19:10:28.862Z,10.75
2023-01-11T19:13:01.091Z,10.35
2023-01-11T19:15:29.938Z,12.80
2023-01-11T19:20:32.732Z,13.52
2023-01-11T19:23:01.797Z,10.05
2023-01-11T19:25:30.693Z,11.02
2023-01-11T19:28:01.220Z,9.35
2023-01-11T19:30:30.251Z,8.50
2023-01-11T19:32:59.219Z,8.75
2023-01-11T19:35:28.010Z,6.82
2023-01-11T19:37:57.826Z,8.75
2023-01-11T19:40:26.678Z,9.60
2023-01-11T19:42:57.538Z,12.57
2023-01-11T19:45:27.841Z,15.35
2023-01-11T19:47:59.858Z,10.77
2023-01-11T19:50:33.520Z,10.82
2023-01-11T19:53:02.803Z,9.43
2023-01-11T19:55:31.773Z,15.57
2023-01-11T19:58:04.703Z,13.88
2023-01-11T20:00:35.469Z,11.43
2023-01-11T20:03:06.315Z,10.23
2023-01-11T20:05:35.523Z,8.55
2023-01-11T20:08:04.703Z,10.70
2023-01-11T20:10:33.699Z,14.02
2023-01-11T20:13:05.562Z,13.23
2023-01-11T20:15:37.937Z,12.30
2023-01-11T20:18:07.054Z,12.43
2023-01-11T20:20:36.552Z,13.23
2023-01-11T20:23:05.768Z,12.50
2023-01-11T20:25:34.798Z,12.80
2023-01-11T20:28:03.657Z,11.82
2023-01-11T20:30:32.533Z,14.50
2023-01-11T20:33:02.900Z,10.27
2023-01-11T20:35:31.771Z,12.93
2023-01-11T20:38:00.993Z,13.68
2023-01-11T20:40:30.229Z,10.77
2023-01-11T20:42:59.107Z,9.40
2023-01-11T20:45:29.313Z,10.82
2023-01-11T20:47:58.260Z,10.40
2023-01-11T20:50:28.581Z,8.73
2023-01-11T20:52:59.504Z,14.23
2023-01-11T20:55:28.768Z,14.88
2023-01-11T20:57:58.528Z,11.95
2023-01-11T21:00:29.801Z,12.93
2023-01-11T21:02:58.857Z,11.50
2023-01-11T21:05:29.323Z,10.60
2023-01-11T21:07:58.359Z,9.32
2023-01-11T21:10:27.191Z,11.25
2023-01-11T21:15:27.176Z,9.35
2023-01-11T21:17:56.142Z,10.82
2023-01-11T21:20:28.876Z,11.32
2023-01-11T21:22:57.840Z,12.27
2023-01-11T21:25:27.098Z,10.07
2023-01-11T21:27:56.222Z,10.07
2023-01-11T21:30:25.566Z,8.80
2023-01-11T21:32:57.304Z,8.20
2023-01-11T21:35:27.257Z,10.55
2023-01-11T21:37:57.776Z,9.95
2023-01-11T21:40:27.236Z,10.38
2023-01-11T21:42:56.516Z,9.45
2023-01-11T21:45:25.721Z,11.00
2023-01-11T21:47:54.577Z,9.00
2023-01-11T21:50:23.483Z,8.57
2023-01-11T21:52:56.772Z,8.95
2023-01-11T21:55:25.671Z,9.73
2023-01-11T21:57:55.326Z,8.80
2023-01-11T22:00:24.408Z,8.23
2023-01-11T22:02:53.468Z,8.02
2023-01-11T22:05:22.333Z,10.32
2023-01-11T22:07:51.423Z,11.68
2023-01-11T22:10:24.205Z,14.57
2023-01-11T22:12:53.225Z,23.55
2023-01-11T22:15:22.248Z,20.95
2023-01-11T22:17:51.400Z,19.52
2023-01-11T22:20:20.441Z,16.65
2023-01-11T22:22:49.375Z,16.90
2023-01-11T22:25:18.850Z,10.85
2023-01-11T22:27:49.299Z,9.95
2023-01-11T22:30:19.003Z,9.15
2023-01-11T22:32:48.014Z,9.60
2023-01-11T22:35:17.259Z,11.05
2023-01-11T22:37:46.231Z,9.90
2023-01-11T22:40:16.519Z,10.18
2023-01-11T22:42:45.515Z,9.60
2023-01-11T22:45:16.076Z,10.43
2023-01-11T22:47:45.701Z,10.55
2023-01-11T22:50:14.861Z,10.63
2023-01-11T22:52:43.797Z,11.80
2023-01-11T22:55:12.713Z,10.75
2023-01-11T22:57:41.680Z,12.40
2023-01-11T23:00:14.759Z,10.00
2023-01-11T23:02:43.800Z,9.73
2023-01-11T23:05:12.766Z,9.18
2023-01-11T23:07:41.711Z,11.05
2023-01-11T23:10:13.797Z,11.00
2023-01-11T23:13:00.211Z,10.02
2023-01-11T23:15:30.885Z,10.23
2023-01-11T23:17:59.923Z,10.35
2023-01-11T23:20:28.932Z,9.52
2023-01-11T23:22:57.856Z,10.00
2023-01-11T23:25:26.960Z,10.35
2023-01-11T23:27:56.714Z,11.02
2023-01-11T23:30:25.586Z,10.60
2023-01-11T23:32:55.909Z,10.02
2023-01-11T23:35:24.915Z,10.45
2023-01-11T23:37:55.981Z,10.00
2023-01-11T23:40:24.965Z,10.90
2023-01-11T23:42:52.811Z,10.70
2023-01-11T23:45:21.724Z,9.82
2023-01-11T23:47:50.244Z,10.68
2023-01-11T23:50:20.533Z,10.02
2023-01-11T23:52:49.565Z,10.70
2023-01-11T23:55:18.523Z,11.73
2023-01-11T23:58:07.376Z,12.63
